KSYN/SYN METAR and TAF weather

Enter ICAO airport designator
Station Type Date Time Source
KSYN METAR 2019/02/18 04:16 UTC NOAA

KSYN 180416Z AUTO 01008KT 10SM BKN080 BKN100 M10/M14 A3015 RMK AO2 T10971136


Station Type Date Time Source
KSYN Decoded METAR 2019/02/18 04:16 UTC NOAA

Stanton, Stanton Airfield, MN, United States (KSYN) 44-28-31N 093-00-58W
Feb 17, 2019 - 11:16 PM EST / 2019.02.18 0416 UTC
Wind: from the N (010 degrees) at 9 MPH (8 KT):0
Visibility: 10 mile(s):0
Sky conditions: mostly cloudy
Temperature: 14.5 F (-9.7 C)
Windchill: 3 F (-16 C):1
Dew Point: 7.5 F (-13.6 C)
Relative Humidity: 73%
Pressure (altimeter): 30.15 in. Hg (1020 hPa)
ob: KSYN 180416Z AUTO 01008KT 10SM BKN080 BKN100 M10/M14 A3015 RMK AO2 T10971136
cycle: 4

Station Type Date Time Source
KSYN TAF UTC NOAA

Error!


Example: see airport list